Time,TemperatureF,DewpointF,PressureIn,WindDirection,WindDirectionDegrees,WindSpeedMPH,WindSpeedGustMPH,Humidity,HourlyPrecipIn,Conditions,Clouds,dailyrainin,SoftwareType,DateUTC
2013-02-01 00:22:00,45.0,28.0,-100.00,West,276,2.0,-999.0,52,0.00,,,-99.99,,2013-02-01 05:22:00,
2013-02-01 00:32:00,45.0,28.0,-100.00,West,276,2.0,-999.0,52,0.00,,,-99.99,,2013-02-01 05:32:00,
2013-02-01 00:42:00,45.0,28.0,-100.00,West,276,2.0,-999.0,52,0.00,,,-99.99,,2013-02-01 05:42:00,
2013-02-01 01:22:00,44.0,29.0,-100.00,West,278,1.0,-999.0,57,0.00,,,-99.99,,2013-02-01 06:22:00,
2013-02-01 01:32:00,44.0,29.0,-100.00,West,278,1.0,-999.0,57,0.00,,,-99.99,,2013-02-01 06:32:00,
2013-02-01 01:42:00,44.0,29.0,-100.00,West,278,1.0,-999.0,57,0.00,,,-99.99,,2013-02-01 06:42:00,
2013-02-01 02:22:00,44.0,30.0,-100.00,West,272,3.0,-999.0,56,0.00,,,-99.99,,2013-02-01 07:22:00,
2013-02-01 02:32:00,44.0,30.0,-100.00,West,272,3.0,-999.0,56,0.00,,,-99.99,,2013-02-01 07:32:00,
2013-02-01 02:42:00,44.0,30.0,-100.00,West,272,3.0,-999.0,56,0.00,,,-99.99,,2013-02-01 07:42:00,
2013-02-01 03:22:00,44.0,28.0,-100.00,West,263,2.0,-999.0,54,0.00,,,-99.99,,2013-02-01 08:22:00,
2013-02-01 03:32:00,44.0,28.0,-100.00,West,263,2.0,-999.0,54,0.00,,,-99.99,,2013-02-01 08:32:00,
2013-02-01 03:42:00,44.0,28.0,-100.00,West,263,2.0,-999.0,54,0.00,,,-99.99,,2013-02-01 08:42:00,
2013-02-01 04:22:00,42.0,29.0,-100.00,WSW,240,1.0,-999.0,59,0.00,,,-99.99,,2013-02-01 09:22:00,
2013-02-01 04:32:00,42.0,29.0,-100.00,WSW,240,1.0,-999.0,59,0.00,,,-99.99,,2013-02-01 09:32:00,
2013-02-01 04:42:00,42.0,29.0,-100.00,WSW,240,1.0,-999.0,59,0.00,,,-99.99,,2013-02-01 09:42:00,
2013-02-01 05:21:00,44.0,29.0,-100.00,WSW,248,3.0,-999.0,55,0.00,,,-99.99,,2013-02-01 10:21:00,
2013-02-01 05:32:00,44.0,29.0,-100.00,WSW,248,3.0,-999.0,55,0.00,,,-99.99,,2013-02-01 10:32:00,
2013-02-01 05:43:00,44.0,29.0,-100.00,WSW,248,3.0,-999.0,55,0.00,,,-99.99,,2013-02-01 10:43:00,
2013-02-01 06:22:00,44.0,30.0,-100.00,WSW,239,4.0,-999.0,57,0.00,,,-99.99,,2013-02-01 11:22:00,
2013-02-01 06:32:00,44.0,30.0,-100.00,WSW,239,4.0,-999.0,57,0.00,,,-99.99,,2013-02-01 11:32:00,
2013-02-01 06:42:00,44.0,30.0,-100.00,WSW,239,4.0,-999.0,57,0.00,,,-99.99,,2013-02-01 11:42:00,
2013-02-01 07:23:00,44.0,30.0,-100.00,SW,233,4.0,-999.0,58,0.00,,,-99.99,,2013-02-01 12:23:00,
2013-02-01 07:32:00,44.0,30.0,-100.00,SW,233,4.0,-999.0,58,0.00,,,-99.99,,2013-02-01 12:32:00,
2013-02-01 07:42:00,44.0,30.0,-100.00,SW,233,4.0,-999.0,58,0.00,,,-99.99,,2013-02-01 12:42:00,
2013-02-01 08:22:00,44.0,31.0,-100.00,WSW,237,5.0,-999.0,58,0.00,,,-99.99,,2013-02-01 13:22:00,
2013-02-01 08:33:00,44.0,31.0,-100.00,WSW,237,5.0,-999.0,58,0.00,,,-99.99,,2013-02-01 13:33:00,
2013-02-01 08:42:00,44.0,31.0,-100.00,WSW,237,5.0,-999.0,58,0.00,,,-99.99,,2013-02-01 13:42:00,
2013-02-01 09:22:00,49.0,30.0,-100.00,WSW,243,7.0,-999.0,49,0.00,,,-99.99,,2013-02-01 14:22:00,
2013-02-01 09:32:00,49.0,30.0,-100.00,WSW,243,7.0,-999.0,49,0.00,,,-99.99,,2013-02-01 14:32:00,
2013-02-01 09:42:00,49.0,30.0,-100.00,WSW,243,7.0,-999.0,49,0.00,,,-99.99,,2013-02-01 14:42:00,
2013-02-01 10:22:00,52.0,29.0,-100.00,West,274,7.0,-999.0,42,0.00,,,-99.99,,2013-02-01 15:22:00,
2013-02-01 10:33:00,52.0,29.0,-100.00,West,274,7.0,-999.0,42,0.00,,,-99.99,,2013-02-01 15:33:00,
2013-02-01 10:42:00,52.0,29.0,-100.00,West,274,7.0,-999.0,42,0.00,,,-99.99,,2013-02-01 15:42:00,
2013-02-01 11:22:00,54.0,32.0,-100.00,WNW,290,7.0,-999.0,43,0.00,,,-99.99,,2013-02-01 16:22:00,
2013-02-01 11:33:00,54.0,32.0,-100.00,WNW,290,7.0,-999.0,43,0.00,,,-99.99,,2013-02-01 16:33:00,
2013-02-01 11:43:00,54.0,32.0,-100.00,WNW,290,7.0,-999.0,43,0.00,,,-99.99,,2013-02-01 16:43:00,
2013-02-01 12:22:00,56.0,31.0,-100.00,WNW,293,8.0,-999.0,38,0.00,,,-99.99,,2013-02-01 17:22:00,
2013-02-01 12:32:00,56.0,31.0,-100.00,WNW,293,8.0,-999.0,38,0.00,,,-99.99,,2013-02-01 17:32:00,
2013-02-01 12:42:00,56.0,31.0,-100.00,WNW,293,8.0,-999.0,38,0.00,,,-99.99,,2013-02-01 17:42:00,
2013-02-01 13:23:00,58.0,28.0,-100.00,NW,304,9.0,-999.0,32,0.00,,,-99.99,,2013-02-01 18:23:00,
2013-02-01 13:32:00,58.0,28.0,-100.00,NW,304,9.0,-999.0,32,0.00,,,-99.99,,2013-02-01 18:32:00,
2013-02-01 13:42:00,58.0,28.0,-100.00,NW,304,9.0,-999.0,32,0.00,,,-99.99,,2013-02-01 18:42:00,
2013-02-01 14:22:00,57.0,22.0,-100.00,WNW,299,7.0,-999.0,26,0.00,,,-99.99,,2013-02-01 19:22:00,
2013-02-01 14:32:00,57.0,22.0,-100.00,WNW,299,7.0,-999.0,26,0.00,,,-99.99,,2013-02-01 19:32:00,
2013-02-01 14:42:00,57.0,22.0,-100.00,WNW,299,7.0,-999.0,26,0.00,,,-99.99,,2013-02-01 19:42:00,
2013-02-01 15:22:00,58.0,19.0,-100.00,WNW,298,6.0,-999.0,22,0.00,,,-99.99,,2013-02-01 20:22:00,
2013-02-01 15:32:00,58.0,19.0,-100.00,WNW,298,6.0,-999.0,22,0.00,,,-99.99,,2013-02-01 20:32:00,
2013-02-01 15:42:00,58.0,19.0,-100.00,WNW,298,6.0,-999.0,22,0.00,,,-99.99,,2013-02-01 20:42:00,
2013-02-01 16:22:00,56.0,16.0,-100.00,WNW,292,6.0,-999.0,20,0.00,,,-99.99,,2013-02-01 21:22:00,
2013-02-01 16:32:00,56.0,16.0,-100.00,WNW,292,6.0,-999.0,20,0.00,,,-99.99,,2013-02-01 21:32:00,
2013-02-01 16:42:00,56.0,16.0,-100.00,WNW,292,6.0,-999.0,20,0.00,,,-99.99,,2013-02-01 21:42:00,
2013-02-01 17:22:00,56.0,14.0,-100.00,NW,314,4.0,-999.0,19,0.00,,,-99.99,,2013-02-01 22:22:00,
2013-02-01 17:32:00,56.0,14.0,-100.00,NW,314,4.0,-999.0,19,0.00,,,-99.99,,2013-02-01 22:32:00,
2013-02-01 17:42:00,56.0,14.0,-100.00,NW,314,4.0,-999.0,19,0.00,,,-99.99,,2013-02-01 22:42:00,
2013-02-01 18:22:00,51.0,12.0,-100.00,WNW,292,3.0,-999.0,20,0.00,,,-99.99,,2013-02-01 23:22:00,
2013-02-01 18:32:00,51.0,12.0,-100.00,WNW,292,3.0,-999.0,20,0.00,,,-99.99,,2013-02-01 23:32:00,
2013-02-01 18:42:00,51.0,12.0,-100.00,WNW,292,3.0,-999.0,20,0.00,,,-99.99,,2013-02-01 23:42:00,
2013-02-01 19:22:00,47.0,13.0,-100.00,West,280,1.0,-999.0,25,0.00,,,-99.99,,2013-02-02 00:22:00,
2013-02-01 19:32:00,47.0,13.0,-100.00,West,280,1.0,-999.0,25,0.00,,,-99.99,,2013-02-02 00:32:00,
2013-02-01 19:42:00,47.0,13.0,-100.00,West,280,1.0,-999.0,25,0.00,,,-99.99,,2013-02-02 00:42:00,
2013-02-01 20:22:00,43.0,15.0,-100.00,NW,321,1.0,-999.0,32,0.00,,,-99.99,,2013-02-02 01:22:00,
2013-02-01 20:32:00,43.0,15.0,-100.00,NW,321,1.0,-999.0,32,0.00,,,-99.99,,2013-02-02 01:32:00,
2013-02-01 20:42:00,43.0,15.0,-100.00,NW,321,1.0,-999.0,32,0.00,,,-99.99,,2013-02-02 01:42:00,
2013-02-01 21:22:00,41.0,17.0,-100.00,WNW,303,1.0,-999.0,37,0.00,,,-99.99,,2013-02-02 02:22:00,
2013-02-01 21:32:00,41.0,17.0,-100.00,WNW,303,1.0,-999.0,37,0.00,,,-99.99,,2013-02-02 02:32:00,
2013-02-01 21:42:00,41.0,17.0,-100.00,WNW,303,1.0,-999.0,37,0.00,,,-99.99,,2013-02-02 02:42:00,
2013-02-01 22:11:00,38.0,22.0,-100.00,NNW,345,1.0,-999.0,51,0.00,,,-99.99,,2013-02-02 03:11:00,
2013-02-01 22:22:00,38.0,22.0,-100.00,NNW,345,1.0,-999.0,51,0.00,,,-99.99,,2013-02-02 03:22:00,
2013-02-01 22:32:00,38.0,22.0,-100.00,NNW,345,1.0,-999.0,51,0.00,,,-99.99,,2013-02-02 03:32:00,
2013-02-01 22:42:00,38.0,22.0,-100.00,NNW,345,1.0,-999.0,51,0.00,,,-99.99,,2013-02-02 03:42:00,
2013-02-01 23:22:00,35.0,23.0,-100.00,WNW,293,0.0,-999.0,60,0.00,,,-99.99,,2013-02-02 04:22:00,
2013-02-01 23:32:00,35.0,23.0,-100.00,WNW,293,0.0,-999.0,60,0.00,,,-99.99,,2013-02-02 04:32:00,
2013-02-01 23:42:00,35.0,23.0,-100.00,WNW,293,0.0,-999.0,60,0.00,,,-99.99,,2013-02-02 04:42:00,